createdAt,value
2022-08-17T00:00:49.701Z,17.5
2022-08-17T00:02:00.088Z,17.4
2022-08-17T00:03:10.207Z,17.4
2022-08-17T00:04:20.062Z,17.4
2022-08-17T00:05:30.179Z,17.3
2022-08-17T00:06:40.293Z,17.3
2022-08-17T00:08:59.541Z,17.2
2022-08-17T00:10:08.691Z,17.2
2022-08-17T00:11:17.832Z,17.2
2022-08-17T00:12:27.951Z,17.2
2022-08-17T00:13:38.064Z,17.2
2022-08-17T00:15:58.298Z,17.2
2022-08-17T00:17:08.419Z,17.2
2022-08-17T00:18:18.812Z,17.1
2022-08-17T00:19:28.656Z,17.1
2022-08-17T00:21:48.884Z,17.1
2022-08-17T00:22:59.004Z,17.1
2022-08-17T00:24:09.131Z,17.1
2022-08-17T00:25:19.000Z,17.1
2022-08-17T00:26:28.385Z,17.1
2022-08-17T00:27:38.495Z,17.1
2022-08-17T00:28:48.618Z,17
2022-08-17T00:29:58.737Z,17
2022-08-17T00:31:08.839Z,17
2022-08-17T00:32:19.237Z,17
2022-08-17T00:33:29.080Z,17
2022-08-17T00:34:39.470Z,17
2022-08-17T00:35:49.313Z,16.9
2022-08-17T00:36:59.438Z,16.9
2022-08-17T00:38:09.820Z,16.9
2022-08-17T00:39:19.674Z,16.8
2022-08-17T00:40:28.813Z,16.8
2022-08-17T00:41:37.945Z,16.8
2022-08-17T00:42:48.070Z,16.8
2022-08-17T00:43:58.188Z,16.8
2022-08-17T00:45:08.310Z,16.7
2022-08-17T00:46:18.419Z,16.7
2022-08-17T00:47:28.815Z,16.7
2022-08-17T00:48:38.663Z,16.7
2022-08-17T00:49:48.779Z,16.7
2022-08-17T00:50:58.890Z,16.7
2022-08-17T00:52:09.021Z,16.7
2022-08-17T00:53:18.154Z,16.7
2022-08-17T00:54:27.293Z,16.7
2022-08-17T00:55:37.417Z,16.6
2022-08-17T00:56:47.798Z,16.6
2022-08-17T00:57:57.637Z,16.6
2022-08-17T00:59:07.765Z,16.5
2022-08-17T01:00:17.874Z,16.5
2022-08-17T01:01:27.994Z,16.5
2022-08-17T01:02:38.118Z,16.5
2022-08-17T01:04:58.346Z,16.5
2022-08-17T01:06:08.471Z,16.4
2022-08-17T01:07:18.592Z,16.4
2022-08-17T01:08:28.697Z,16.4
2022-08-17T01:09:37.841Z,16.4
2022-08-17T01:11:58.084Z,16.4
2022-08-17T01:13:07.225Z,16.4
2022-08-17T01:14:16.357Z,16.4
2022-08-17T01:15:26.464Z,16.4
2022-08-17T01:16:36.595Z,16.4
2022-08-17T01:18:57.089Z,16.3
2022-08-17T01:20:06.942Z,16.3
2022-08-17T01:21:17.067Z,16.3
2022-08-17T01:22:27.175Z,16.3
2022-08-17T01:23:37.566Z,16.3
2022-08-17T01:24:47.414Z,16.3
2022-08-17T01:25:57.537Z,16.3
2022-08-17T01:27:07.647Z,16.3
2022-08-17T01:28:17.761Z,16.3
2022-08-17T01:30:41.778Z,16.2
2022-08-17T01:31:47.140Z,16.2
2022-08-17T01:32:56.271Z,16.2
2022-08-17T01:34:05.406Z,16.2
2022-08-17T01:35:15.531Z,16.2
2022-08-17T01:36:25.651Z,16.2
2022-08-17T01:37:35.760Z,16.2
2022-08-17T01:39:56.002Z,16.2
2022-08-17T01:41:06.109Z,16.2
2022-08-17T01:43:26.339Z,16.2
2022-08-17T01:44:36.469Z,16.1
2022-08-17T01:46:56.706Z,16.1
2022-08-17T01:49:16.940Z,16.1
2022-08-17T01:50:26.077Z,16.1
2022-08-17T01:51:36.188Z,16
2022-08-17T01:52:46.298Z,16
2022-08-17T01:53:56.424Z,16
2022-08-17T01:55:06.532Z,16
2022-08-17T01:56:16.658Z,16
2022-08-17T01:57:26.766Z,16
2022-08-17T01:58:37.159Z,15.9
2022-08-17T02:00:57.388Z,15.9
2022-08-17T02:02:07.235Z,15.9
2022-08-17T02:03:17.362Z,15.9
2022-08-17T02:04:27.471Z,15.9
2022-08-17T02:05:36.880Z,15.8
2022-08-17T02:06:46.723Z,15.8
2022-08-17T02:07:57.117Z,15.8
2022-08-17T02:09:06.968Z,15.8
2022-08-17T02:10:17.075Z,15.8
2022-08-17T02:11:27.201Z,15.8
2022-08-17T02:12:37.328Z,15.8
2022-08-17T02:13:46.469Z,15.8
2022-08-17T02:14:55.858Z,15.8
2022-08-17T02:16:05.714Z,15.8
2022-08-17T02:17:16.096Z,15.8
2022-08-17T02:18:25.946Z,15.8
2022-08-17T02:19:36.064Z,15.8
2022-08-17T02:21:56.564Z,15.7
2022-08-17T02:23:06.426Z,15.7
2022-08-17T02:24:16.533Z,15.7
2022-08-17T02:25:26.655Z,15.7
2022-08-17T02:26:36.762Z,15.7
2022-08-17T02:27:46.887Z,15.7
2022-08-17T02:30:07.122Z,15.7
2022-08-17T02:31:17.513Z,15.7
2022-08-17T02:32:26.382Z,15.7
2022-08-17T02:33:35.514Z,15.7
2022-08-17T02:35:56.020Z,15.6
2022-08-17T02:37:05.872Z,15.6
2022-08-17T02:38:16.262Z,15.7
2022-08-17T02:39:26.107Z,15.7
2022-08-17T02:41:46.348Z,15.7
2022-08-17T02:42:56.471Z,15.7
2022-08-17T02:44:06.573Z,15.7
2022-08-17T02:45:16.700Z,15.7
2022-08-17T02:47:36.925Z,15.6
2022-08-17T02:49:56.184Z,15.6
2022-08-17T02:51:06.563Z,15.6
2022-08-17T02:52:16.411Z,15.6
2022-08-17T02:53:26.541Z,15.5
2022-08-17T02:54:36.646Z,15.5
2022-08-17T02:55:46.773Z,15.5
2022-08-17T02:56:56.880Z,15.5
2022-08-17T02:58:07.009Z,15.5
2022-08-17T02:59:17.386Z,15.5
2022-08-17T03:00:27.234Z,15.4
2022-08-17T03:01:37.361Z,15.4
2022-08-17T03:03:57.595Z,15.4
2022-08-17T03:05:06.990Z,15.4
2022-08-17T03:06:16.845Z,15.4
2022-08-17T03:07:26.951Z,15.4
2022-08-17T03:08:37.073Z,15.4
2022-08-17T03:09:47.202Z,15.4
2022-08-17T03:10:57.310Z,15.4
2022-08-17T03:12:07.439Z,15.4
2022-08-17T03:13:17.548Z,15.4
2022-08-17T03:14:26.689Z,15.4
2022-08-17T03:15:36.103Z,15.4
2022-08-17T03:19:06.170Z,15.3
2022-08-17T03:20:16.291Z,15.3
2022-08-17T03:21:26.414Z,15.3
2022-08-17T03:22:36.536Z,15.3
2022-08-17T03:24:56.771Z,15.3
2022-08-17T03:26:06.885Z,15.3
2022-08-17T03:28:27.117Z,15.3
2022-08-17T03:29:37.227Z,15.2
2022-08-17T03:30:46.637Z,15.2
2022-08-17T03:31:55.512Z,15.2
2022-08-17T03:33:04.639Z,15.2
2022-08-17T03:34:14.769Z,15.2
2022-08-17T03:35:25.142Z,15.2
2022-08-17T03:36:34.991Z,15.1
2022-08-17T03:38:55.225Z,15.1
2022-08-17T03:41:15.731Z,15.1
2022-08-17T03:42:25.583Z,15.1
2022-08-17T03:43:35.706Z,15.1
2022-08-17T03:45:55.938Z,15.1
2022-08-17T03:47:05.069Z,15.1
2022-08-17T03:48:15.186Z,15.2
2022-08-17T03:49:25.605Z,15.2
2022-08-17T03:51:45.546Z,15.1
2022-08-17T03:52:55.667Z,15.1
2022-08-17T03:54:05.787Z,15.1
2022-08-17T03:55:15.900Z,15
2022-08-17T03:56:26.026Z,15
2022-08-17T03:57:36.137Z,15
2022-08-17T03:58:46.517Z,15
2022-08-17T03:59:56.370Z,15.1
2022-08-17T04:01:06.496Z,15.1
2022-08-17T04:02:15.891Z,15.1
2022-08-17T04:03:25.739Z,15.1
2022-08-17T04:04:35.863Z,15.2
2022-08-17T04:05:45.970Z,15.2
2022-08-17T04:06:56.092Z,15.2
2022-08-17T04:08:06.209Z,15.2
2022-08-17T04:09:16.323Z,15.3
2022-08-17T04:10:25.463Z,15.3
2022-08-17T04:11:34.600Z,15.3
2022-08-17T04:12:44.726Z,15.4
2022-08-17T04:13:54.832Z,15.4
2022-08-17T04:15:04.955Z,15.4
2022-08-17T04:16:15.337Z,15.4
2022-08-17T04:17:25.183Z,15.4
2022-08-17T04:18:35.307Z,15.4
2022-08-17T04:19:45.417Z,15.5
2022-08-17T04:20:55.541Z,15.5
2022-08-17T04:22:05.922Z,15.6
2022-08-17T04:23:14.797Z,15.6
2022-08-17T04:24:23.940Z,15.6
2022-08-17T04:25:34.065Z,15.7
2022-08-17T04:26:44.174Z,15.7
2022-08-17T04:27:54.295Z,15.7
2022-08-17T04:29:04.673Z,15.8
2022-08-17T04:30:14.527Z,15.8
2022-08-17T04:31:24.911Z,15.8
2022-08-17T04:32:34.758Z,15.9
2022-08-17T04:33:44.874Z,15.9
2022-08-17T04:34:55.003Z,15.9
2022-08-17T04:36:05.108Z,16
2022-08-17T04:37:15.236Z,16
2022-08-17T04:38:25.341Z,16
2022-08-17T04:39:34.478Z,16.1
2022-08-17T04:40:44.603Z,16.1
2022-08-17T04:41:54.722Z,16.1
2022-08-17T04:43:04.834Z,16.2
2022-08-17T04:44:14.963Z,16.2
2022-08-17T04:45:25.065Z,16.2
2022-08-17T04:46:35.459Z,16.2
2022-08-17T04:48:55.419Z,16.3
2022-08-17T04:50:05.545Z,16.3
2022-08-17T04:51:15.917Z,16.4
2022-08-17T04:53:35.890Z,16.5
2022-08-17T04:54:45.028Z,16.6
2022-08-17T04:55:55.141Z,16.6
2022-08-17T04:57:05.270Z,16.7
2022-08-17T04:58:15.380Z,16.8
2022-08-17T04:59:25.763Z,16.8
2022-08-17T05:00:35.608Z,16.9
2022-08-17T05:01:45.734Z,17
2022-08-17T05:02:55.858Z,17.1
2022-08-17T05:04:05.971Z,17.2
2022-08-17T05:05:16.078Z,17.3
2022-08-17T05:06:26.200Z,17.4
2022-08-17T05:07:36.322Z,17.4
2022-08-17T05:08:46.429Z,17.5
2022-08-17T05:09:55.835Z,17.6
2022-08-17T05:11:05.953Z,17.7
2022-08-17T05:13:26.185Z,17.9
2022-08-17T05:14:36.036Z,18
2022-08-17T05:15:46.162Z,18.1
2022-08-17T05:16:56.269Z,18.2
2022-08-17T05:18:06.660Z,18.3
2022-08-17T05:19:16.511Z,18.4
2022-08-17T05:20:26.635Z,18.5
2022-08-17T05:21:36.742Z,18.6
2022-08-17T05:22:46.863Z,18.7
2022-08-17T05:25:07.092Z,18.8
2022-08-17T05:26:16.232Z,18.9
2022-08-17T05:27:26.362Z,19
2022-08-17T05:28:36.465Z,19.1
2022-08-17T05:29:46.960Z,19.2
2022-08-17T05:30:56.698Z,19.2
2022-08-17T05:32:06.821Z,19.3
2022-08-17T05:33:16.940Z,19.4
2022-08-17T05:34:27.323Z,19.5
2022-08-17T05:35:37.178Z,19.6
2022-08-17T05:36:47.304Z,19.7
2022-08-17T05:37:57.420Z,19.8
2022-08-17T05:39:07.528Z,19.9
2022-08-17T05:40:17.641Z,20
2022-08-17T05:41:26.774Z,20.1
2022-08-17T05:42:36.908Z,20.2
2022-08-17T05:44:57.129Z,20.4
2022-08-17T05:46:07.254Z,20.5
2022-08-17T05:47:17.637Z,20.5
2022-08-17T05:48:27.485Z,20.6
2022-08-17T05:49:37.609Z,20.7
2022-08-17T05:50:47.735Z,20.8
2022-08-17T05:51:57.843Z,20.8
2022-08-17T05:53:07.970Z,20.9
2022-08-17T05:54:18.088Z,21
2022-08-17T05:55:28.467Z,21
2022-08-17T05:56:38.308Z,21.1
2022-08-17T05:57:47.714Z,21.1
2022-08-17T05:58:57.564Z,21.1
2022-08-17T06:00:07.688Z,21.2
2022-08-17T06:01:17.799Z,21.3
2022-08-17T06:02:28.179Z,21.4
2022-08-17T06:03:38.030Z,21.5
2022-08-17T06:05:58.264Z,21.7
2022-08-17T06:07:08.392Z,21.8
2022-08-17T06:08:18.511Z,21.9
2022-08-17T06:09:28.632Z,22
2022-08-17T06:10:38.738Z,22.1
2022-08-17T06:11:48.864Z,22.2
2022-08-17T06:12:57.999Z,22.3
2022-08-17T06:14:08.380Z,22.3
2022-08-17T06:15:18.227Z,22.4
2022-08-17T06:16:28.355Z,22.5
2022-08-17T06:17:38.730Z,22.6
2022-08-17T06:19:58.700Z,22.8
2022-08-17T06:21:08.809Z,23
2022-08-17T06:22:18.926Z,23.1
2022-08-17T06:23:29.054Z,23.2
2022-08-17T06:24:39.159Z,23.3
2022-08-17T06:26:59.405Z,23.3
2022-08-17T06:28:08.545Z,23.4
2022-08-17T06:29:17.685Z,23.4
2022-08-17T06:30:27.794Z,23.4
2022-08-17T06:31:37.921Z,23.5
2022-08-17T06:32:48.025Z,23.6
2022-08-17T06:33:58.153Z,23.8
2022-08-17T06:35:08.272Z,23.8
2022-08-17T06:36:18.380Z,23.8
2022-08-17T06:37:28.505Z,23.8
2022-08-17T06:38:38.612Z,23.8
2022-08-17T06:39:48.733Z,23.8
2022-08-17T06:40:57.885Z,23.9
2022-08-17T06:42:07.017Z,24
2022-08-17T06:43:17.397Z,24
2022-08-17T06:44:27.254Z,24
2022-08-17T06:45:37.360Z,24.1
2022-08-17T06:46:47.491Z,24.2
2022-08-17T06:47:57.596Z,24.1
2022-08-17T06:49:07.719Z,24
2022-08-17T06:50:18.094Z,24
2022-08-17T06:51:27.949Z,24.1
2022-08-17T06:52:38.065Z,24.2
2022-08-17T06:54:58.312Z,24.4
2022-08-17T06:56:08.424Z,24.5
2022-08-17T06:57:17.559Z,24.5
2022-08-17T06:58:27.935Z,24.6
2022-08-17T06:59:37.789Z,24.6
2022-08-17T07:00:47.912Z,24.7
2022-08-17T07:01:58.018Z,24.8
2022-08-17T07:03:08.142Z,24.8
2022-08-17T07:04:18.519Z,24.9
2022-08-17T07:05:28.635Z,25
2022-08-17T07:06:38.490Z,25.1
2022-08-17T07:07:48.609Z,25.1
2022-08-17T07:10:08.853Z,25.1
2022-08-17T07:11:18.961Z,25.1
2022-08-17T07:12:28.095Z,25.1
2022-08-17T07:13:38.218Z,25.1
2022-08-17T07:14:48.599Z,25.2
2022-08-17T07:15:58.451Z,25.2
2022-08-17T07:17:08.562Z,25.1
2022-08-17T07:18:18.682Z,25.2
2022-08-17T07:19:28.796Z,25.2
2022-08-17T07:21:49.028Z,25.3
2022-08-17T07:22:59.153Z,25.4
2022-08-17T07:24:09.269Z,25.5
2022-08-17T07:25:19.392Z,25.7
2022-08-17T07:26:29.498Z,25.8
2022-08-17T07:27:38.897Z,25.9
2022-08-17T07:28:48.764Z,26
2022-08-17T07:29:58.879Z,26
2022-08-17T07:31:08.979Z,25.8
2022-08-17T07:32:19.103Z,25.9
2022-08-17T07:33:29.227Z,25.9
2022-08-17T07:34:39.334Z,26
2022-08-17T07:35:49.465Z,26
2022-08-17T07:36:59.572Z,26.1
2022-08-17T07:38:09.700Z,26.1
2022-08-17T07:39:19.802Z,25.7
2022-08-17T07:40:29.932Z,25.6
2022-08-17T07:41:38.553Z,25.7
2022-08-17T07:43:59.292Z,25.9
2022-08-17T07:45:09.421Z,26.1
2022-08-17T07:48:39.772Z,26.5
2022-08-17T07:50:59.035Z,26.4
2022-08-17T07:52:08.166Z,26.4
2022-08-17T07:53:17.570Z,26.5
2022-08-17T07:54:27.424Z,26.4
2022-08-17T07:55:37.549Z,26.2
2022-08-17T07:56:47.652Z,25.9
2022-08-17T07:57:57.779Z,25.9
2022-08-17T07:59:07.892Z,26
2022-08-17T08:00:18.015Z,26
2022-08-17T08:01:28.139Z,26.1
2022-08-17T08:02:38.517Z,26.1
2022-08-17T08:03:48.370Z,26.2
2022-08-17T08:04:57.506Z,26.4
2022-08-17T08:06:06.648Z,26.5
2022-08-17T08:07:17.021Z,26.6
2022-08-17T08:08:26.869Z,26.6
2022-08-17T08:09:37.258Z,26.7
2022-08-17T08:11:57.222Z,26.7
2022-08-17T08:13:07.350Z,26.6
2022-08-17T08:14:17.466Z,26.7
2022-08-17T08:15:27.574Z,26.7
2022-08-17T08:16:37.692Z,26.8
2022-08-17T08:17:47.810Z,26.6
2022-08-17T08:18:57.934Z,26.6
2022-08-17T08:20:08.059Z,26.6
2022-08-17T08:21:17.194Z,26.6
2022-08-17T08:22:27.300Z,26.7
2022-08-17T08:23:37.686Z,26.6
2022-08-17T08:24:47.535Z,26.7
2022-08-17T08:25:57.651Z,26.8
2022-08-17T08:27:07.777Z,26.9
2022-08-17T08:28:17.901Z,27
2022-08-17T08:29:28.014Z,27.1
2022-08-17T08:30:38.119Z,26.8
2022-08-17T08:31:48.512Z,26.9
2022-08-17T08:32:58.000Z,26.8
2022-08-17T08:34:08.487Z,26.9
2022-08-17T08:35:18.594Z,26.9
2022-08-17T08:36:27.731Z,26.9
2022-08-17T08:37:37.318Z,26.9
2022-08-17T08:38:47.968Z,27.1
2022-08-17T08:39:58.089Z,27.2
2022-08-17T08:41:08.203Z,27.3
2022-08-17T08:42:18.328Z,27.4
2022-08-17T08:43:28.441Z,27.4
2022-08-17T08:44:38.562Z,27.5
2022-08-17T08:45:48.675Z,27.4
2022-08-17T08:46:58.798Z,27.4
2022-08-17T08:48:08.904Z,27.5
2022-08-17T08:49:19.028Z,27.5
2022-08-17T08:50:29.401Z,27.2
2022-08-17T08:51:38.553Z,27.4
2022-08-17T08:53:58.508Z,27.6
2022-08-17T08:55:08.885Z,27.7
2022-08-17T08:56:18.748Z,27.8
2022-08-17T08:57:28.855Z,27.8
2022-08-17T08:58:38.982Z,27.9
2022-08-17T08:59:49.104Z,28.1
2022-08-17T09:00:59.223Z,28
2022-08-17T09:02:09.331Z,28
2022-08-17T09:03:19.446Z,28.1
2022-08-17T09:04:29.575Z,28.2
2022-08-17T09:05:39.684Z,28.2
2022-08-17T09:06:48.822Z,28.3
2022-08-17T09:07:58.945Z,28.2
2022-08-17T09:09:09.047Z,28.2
2022-08-17T09:10:19.171Z,28.4
2022-08-17T09:11:29.301Z,28.3
2022-08-17T09:12:39.415Z,28.2
2022-08-17T09:14:59.647Z,28.4
2022-08-17T09:16:09.755Z,28.3
2022-08-17T09:17:19.890Z,28.5
2022-08-17T09:18:29.997Z,28.4
2022-08-17T09:19:40.109Z,28.6
2022-08-17T09:20:50.226Z,28.6
2022-08-17T09:21:59.363Z,28.6
2022-08-17T09:23:09.485Z,28.7
2022-08-17T09:24:19.608Z,28.5
2022-08-17T09:25:29.710Z,28.5
2022-08-17T09:26:39.308Z,28.6
2022-08-17T09:27:49.963Z,28.5
2022-08-17T09:29:00.066Z,28.5
2022-08-17T09:30:10.193Z,28.5
2022-08-17T09:31:20.566Z,28.5
2022-08-17T09:32:30.418Z,28.6
2022-08-17T09:33:40.551Z,28.5
2022-08-17T09:34:50.661Z,28.4
2022-08-17T09:36:00.778Z,28.4
2022-08-17T09:37:09.910Z,28.4
2022-08-17T09:38:20.039Z,28.7
2022-08-17T09:39:30.149Z,28.9
2022-08-17T09:40:40.263Z,28.8
2022-08-17T09:41:50.387Z,29
2022-08-17T09:43:00.493Z,29.2
2022-08-17T09:44:10.625Z,29.1
2022-08-17T09:45:20.733Z,29.1
2022-08-17T09:46:30.856Z,29.2
2022-08-17T09:47:40.980Z,29.5
2022-08-17T09:50:01.469Z,29.8
2022-08-17T09:51:11.318Z,29.9
2022-08-17T09:52:20.450Z,30.2
2022-08-17T09:53:30.573Z,30.3
2022-08-17T09:54:40.697Z,30.6
2022-08-17T09:57:00.937Z,30.6
2022-08-17T09:58:11.049Z,30.6
2022-08-17T09:59:21.159Z,30.6
2022-08-17T10:00:31.587Z,30.8
2022-08-17T10:01:41.407Z,30.5
2022-08-17T10:04:01.637Z,29.8
2022-08-17T10:05:11.043Z,29.4
2022-08-17T10:06:20.179Z,29.2
2022-08-17T10:07:30.031Z,29.2
2022-08-17T10:08:40.158Z,29.2
2022-08-17T10:09:50.270Z,29.3
2022-08-17T10:11:00.391Z,29.1
2022-08-17T10:12:10.495Z,28.9
2022-08-17T10:13:20.627Z,29
2022-08-17T10:14:30.998Z,29.2
2022-08-17T10:15:40.861Z,29
2022-08-17T10:18:01.082Z,28.6
2022-08-17T10:19:11.210Z,28.5
2022-08-17T10:20:21.589Z,28.2
2022-08-17T10:21:30.719Z,28.3
2022-08-17T10:22:40.574Z,28.6
2022-08-17T10:25:00.807Z,28.8
2022-08-17T10:26:09.957Z,28.9
2022-08-17T10:27:19.097Z,29
2022-08-17T10:28:29.200Z,29.1
2022-08-17T10:29:39.594Z,29.4
2022-08-17T10:31:59.566Z,29.7
2022-08-17T10:33:09.673Z,30
2022-08-17T10:34:19.795Z,30.2
2022-08-17T10:35:29.924Z,30.4
2022-08-17T10:36:40.025Z,30.4
2022-08-17T10:37:50.411Z,30.4
2022-08-17T10:39:00.259Z,30.2
2022-08-17T10:40:10.644Z,29.9
2022-08-17T10:41:20.504Z,29.8
2022-08-17T10:42:29.641Z,29.8
2022-08-17T10:43:39.753Z,29.6
2022-08-17T10:44:49.877Z,29.6
2022-08-17T10:45:59.984Z,29.7
2022-08-17T10:47:10.114Z,29.5
2022-08-17T10:48:20.226Z,29.6
2022-08-17T10:49:30.338Z,29.7
2022-08-17T10:50:40.465Z,29.9
2022-08-17T10:52:59.723Z,29.7
2022-08-17T10:54:08.860Z,29.9
2022-08-17T10:55:18.982Z,30
2022-08-17T10:56:28.114Z,30
2022-08-17T10:57:37.514Z,29.4
2022-08-17T10:58:47.370Z,29.1
2022-08-17T10:59:57.494Z,28.8
2022-08-17T11:01:07.601Z,29
2022-08-17T11:02:17.724Z,29
2022-08-17T11:03:28.110Z,29
2022-08-17T11:04:37.959Z,28.9
2022-08-17T11:05:48.087Z,28.9
2022-08-17T11:06:58.190Z,28.9
2022-08-17T11:08:08.314Z,29.1
2022-08-17T11:09:17.454Z,29
2022-08-17T11:10:26.587Z,29.1
2022-08-17T11:11:36.709Z,29.2
2022-08-17T11:12:46.833Z,29.5
2022-08-17T11:13:56.949Z,29.6
2022-08-17T11:15:07.072Z,29.7
2022-08-17T11:16:17.182Z,29.8
2022-08-17T11:17:27.290Z,29.7
2022-08-17T11:18:37.420Z,29.3
2022-08-17T11:19:47.804Z,29.1
2022-08-17T11:20:57.656Z,28.9
2022-08-17T11:22:07.763Z,28.7
2022-08-17T11:23:17.360Z,28.6
2022-08-17T11:24:27.995Z,28.6
2022-08-17T11:25:37.135Z,28.7
2022-08-17T11:26:47.260Z,28.7
2022-08-17T11:27:57.632Z,28.4
2022-08-17T11:29:07.759Z,28.4
2022-08-17T11:30:17.868Z,28.4
2022-08-17T11:31:27.732Z,28.5
2022-08-17T11:32:37.838Z,28.5
2022-08-17T11:34:58.078Z,28.7
2022-08-17T11:36:07.220Z,28.8
2022-08-17T11:37:17.346Z,29.1
2022-08-17T11:38:27.451Z,29.4
2022-08-17T11:39:37.842Z,29.6
2022-08-17T11:40:47.955Z,29.4
2022-08-17T11:41:57.817Z,29.3
2022-08-17T11:43:07.924Z,29.6
2022-08-17T11:44:18.051Z,29.7
2022-08-17T11:45:28.163Z,30.1
2022-08-17T11:46:38.276Z,30.1
2022-08-17T11:48:58.789Z,30
2022-08-17T11:50:08.627Z,29.6
2022-08-17T11:51:18.033Z,29.5
2022-08-17T11:52:27.889Z,29.4
2022-08-17T11:53:38.000Z,29
2022-08-17T11:55:58.241Z,28.6
2022-08-17T11:57:07.381Z,28.5
2022-08-17T11:58:16.507Z,28.5
2022-08-17T11:59:26.889Z,28.6
2022-08-17T12:01:46.863Z,28.9
2022-08-17T12:02:56.989Z,29
2022-08-17T12:04:07.093Z,29
2022-08-17T12:05:17.219Z,29.2
2022-08-17T12:06:27.597Z,29.2
2022-08-17T12:07:37.455Z,29.4
2022-08-17T12:08:47.564Z,29.3
2022-08-17T12:09:57.691Z,28.9
2022-08-17T12:11:07.809Z,28.8
2022-08-17T12:12:18.191Z,28.9
2022-08-17T12:13:27.067Z,28.8
2022-08-17T12:14:37.175Z,28.6
2022-08-17T12:16:57.412Z,28.8
2022-08-17T12:18:06.552Z,28.7
2022-08-17T12:19:15.685Z,28.7
2022-08-17T12:20:25.815Z,28.6
2022-08-17T12:21:35.917Z,28.6
2022-08-17T12:25:06.283Z,28.4
2022-08-17T12:27:26.510Z,28.7
2022-08-17T12:28:36.633Z,28.8
2022-08-17T12:29:46.740Z,29
2022-08-17T12:30:57.125Z,29.1
2022-08-17T12:32:06.977Z,29.2
2022-08-17T12:33:17.103Z,29.1
2022-08-17T12:34:26.236Z,29.1
2022-08-17T12:35:36.358Z,29.2
2022-08-17T12:37:56.593Z,29.5
2022-08-17T12:39:06.965Z,29.3
2022-08-17T12:40:16.814Z,29.5
2022-08-17T12:41:26.936Z,29.3
2022-08-17T12:42:37.052Z,29.1
2022-08-17T12:44:57.301Z,29.1
2022-08-17T12:46:07.413Z,29.1
2022-08-17T12:47:17.536Z,29.2
2022-08-17T12:48:27.655Z,28.8
2022-08-17T12:49:37.041Z,28.8
2022-08-17T12:50:46.905Z,28.9
2022-08-17T12:51:57.007Z,28.8
2022-08-17T12:53:07.143Z,28.8
2022-08-17T12:54:17.251Z,28.8
2022-08-17T12:55:27.375Z,29.1
2022-08-17T12:56:37.489Z,29.3
2022-08-17T12:58:57.725Z,29.4
2022-08-17T13:00:08.119Z,29.4
2022-08-17T13:01:17.958Z,29.4
2022-08-17T13:02:28.347Z,29.3
2022-08-17T13:03:38.486Z,29.3
2022-08-17T13:05:58.420Z,29.3
2022-08-17T13:07:07.556Z,29.1
2022-08-17T13:08:17.676Z,29.2
2022-08-17T13:09:27.801Z,29.4
2022-08-17T13:10:37.909Z,29.6
2022-08-17T13:12:58.147Z,30
2022-08-17T13:14:08.272Z,30.1
2022-08-17T13:15:18.376Z,30.1
2022-08-17T13:16:28.765Z,29.9
2022-08-17T13:17:38.622Z,29.9
2022-08-17T13:18:48.743Z,30
2022-08-17T13:19:58.857Z,29.8
2022-08-17T13:22:19.088Z,29.8
2022-08-17T13:23:28.226Z,29.6
2022-08-17T13:24:38.600Z,29.5
2022-08-17T13:26:58.567Z,29.6
2022-08-17T13:28:08.694Z,29.3
2022-08-17T13:29:19.078Z,29
2022-08-17T13:30:28.930Z,28.9
2022-08-17T13:31:39.036Z,28.9
2022-08-17T13:33:59.279Z,28.8
2022-08-17T13:35:09.402Z,29
2022-08-17T13:36:19.513Z,28.9
2022-08-17T13:37:29.635Z,29.1
2022-08-17T13:38:38.766Z,29.3
2022-08-17T13:39:48.896Z,29.4
2022-08-17T13:40:58.998Z,29.7
2022-08-17T13:42:09.130Z,29.6
2022-08-17T13:43:19.236Z,29.7
2022-08-17T13:44:29.622Z,29.5
2022-08-17T13:45:39.481Z,29.6
2022-08-17T13:47:59.967Z,29.7
2022-08-17T13:49:10.096Z,29.7
2022-08-17T13:50:20.209Z,29.6
2022-08-17T13:51:30.068Z,29.8
2022-08-17T13:52:40.446Z,29.8
2022-08-17T13:53:49.323Z,29.6
2022-08-17T13:54:59.433Z,29.5
2022-08-17T13:56:09.543Z,29.7
2022-08-17T13:58:29.776Z,29.8
2022-08-17T13:59:40.170Z,29.7
2022-08-17T14:02:00.420Z,29.6
2022-08-17T14:03:10.257Z,29.9
2022-08-17T14:04:20.376Z,30.3
2022-08-17T14:05:30.500Z,30.7
2022-08-17T14:06:40.601Z,31
2022-08-17T14:09:00.855Z,30.8
2022-08-17T14:10:10.955Z,30.6
2022-08-17T14:11:20.092Z,30.5
2022-08-17T14:12:30.221Z,30.4
2022-08-17T14:13:40.327Z,30.1
2022-08-17T14:14:50.445Z,30.2
2022-08-17T14:16:00.572Z,30.1
2022-08-17T14:17:10.946Z,30.1
2022-08-17T14:18:20.795Z,30.5
2022-08-17T14:19:30.921Z,30.5
2022-08-17T14:20:41.049Z,30.7
2022-08-17T14:23:01.269Z,31.7
2022-08-17T14:24:11.396Z,31.8
2022-08-17T14:25:21.500Z,32.2
2022-08-17T14:26:30.641Z,32.8
2022-08-17T14:27:40.769Z,32.8
2022-08-17T14:30:00.996Z,33.4
2022-08-17T14:31:11.120Z,31.9
2022-08-17T14:32:21.239Z,32.3
2022-08-17T14:34:41.471Z,32.2
2022-08-17T14:37:01.707Z,32.2
2022-08-17T14:38:12.082Z,32.4
2022-08-17T14:39:21.933Z,32.1
2022-08-17T14:40:32.064Z,32.5
2022-08-17T14:41:41.197Z,32.6
2022-08-17T14:42:51.298Z,32.6
2022-08-17T14:44:01.426Z,33
2022-08-17T14:45:11.536Z,33.1
2022-08-17T14:46:21.933Z,33.3
2022-08-17T14:47:31.773Z,33.6
2022-08-17T14:48:41.888Z,33.3
2022-08-17T14:51:02.396Z,33.1
2022-08-17T14:52:12.244Z,33.3
2022-08-17T14:53:22.374Z,32.9
2022-08-17T14:54:32.479Z,32.9
2022-08-17T14:55:42.602Z,33.2
2022-08-17T14:56:51.741Z,32.4
2022-08-17T14:58:01.849Z,32.2
2022-08-17T14:59:12.231Z,32.8
2022-08-17T15:00:22.085Z,32.7
2022-08-17T15:01:31.242Z,33
2022-08-17T15:02:40.373Z,33.1
2022-08-17T15:03:50.496Z,32.2
2022-08-17T15:05:00.610Z,31.9
2022-08-17T15:06:10.721Z,31.8
2022-08-17T15:08:30.968Z,33
2022-08-17T15:09:41.076Z,32.8
2022-08-17T15:12:01.572Z,33.2
2022-08-17T15:13:10.897Z,33.1
2022-08-17T15:14:21.557Z,33.9
2022-08-17T15:15:31.662Z,34.6
2022-08-17T15:16:41.077Z,34.2
2022-08-17T15:17:49.955Z,34.2
2022-08-17T15:20:10.182Z,34.1
2022-08-17T15:21:20.305Z,34.5
2022-08-17T15:22:30.410Z,33.9
2022-08-17T15:23:40.801Z,34.3
2022-08-17T15:24:50.643Z,32.8
2022-08-17T15:26:00.762Z,33
2022-08-17T15:27:10.892Z,33.3
2022-08-17T15:28:20.461Z,33
2022-08-17T15:29:31.118Z,32.4
2022-08-17T15:30:40.270Z,32.8
2022-08-17T15:31:50.379Z,32.9
2022-08-17T15:33:00.769Z,32.8
2022-08-17T15:34:10.624Z,32.3
2022-08-17T15:35:20.742Z,32.9
2022-08-17T15:36:30.861Z,33.5
2022-08-17T15:37:40.424Z,33
2022-08-17T15:38:51.096Z,32.5
2022-08-17T15:40:01.202Z,33.2
2022-08-17T15:41:10.786Z,33.9
2022-08-17T15:43:30.581Z,33.7
2022-08-17T15:44:40.008Z,33.4
2022-08-17T15:46:58.437Z,31.4
2022-08-17T15:48:09.114Z,31.4
2022-08-17T15:49:19.226Z,31.1
2022-08-17T15:50:29.337Z,31.4
2022-08-17T15:51:39.467Z,31.3
2022-08-17T15:52:49.573Z,31.2
2022-08-17T15:53:59.692Z,31.1
2022-08-17T15:55:09.816Z,31.4
2022-08-17T15:56:19.942Z,31.8
2022-08-17T15:57:30.054Z,31.7
2022-08-17T15:58:39.195Z,31
2022-08-17T15:59:48.594Z,30.5
2022-08-17T16:00:58.441Z,29.9
2022-08-17T16:03:18.676Z,29.1
2022-08-17T16:04:28.804Z,29
2022-08-17T16:07:59.156Z,28.7
2022-08-17T16:09:09.279Z,28.5
2022-08-17T16:10:19.385Z,28.5
2022-08-17T16:11:29.510Z,28.7
2022-08-17T16:12:39.617Z,28.6
2022-08-17T16:13:49.744Z,28.6
2022-08-17T16:14:58.880Z,28.5
2022-08-17T16:16:08.021Z,28.5
2022-08-17T16:17:18.140Z,28.7
2022-08-17T16:18:28.250Z,29
2022-08-17T16:19:38.372Z,28.9
2022-08-17T16:20:48.503Z,28.8
2022-08-17T16:21:58.058Z,29
2022-08-17T16:23:08.735Z,29.1
2022-08-17T16:24:18.300Z,29
2022-08-17T16:26:39.340Z,29.3
2022-08-17T16:28:59.316Z,28.8
2022-08-17T16:30:07.914Z,28.7
2022-08-17T16:31:17.588Z,28.6
2022-08-17T16:32:27.708Z,28.6
2022-08-17T16:33:37.834Z,28.3
2022-08-17T16:35:58.059Z,28.7
2022-08-17T16:37:08.178Z,28.7
2022-08-17T16:38:18.302Z,29
2022-08-17T16:39:28.679Z,29.1
2022-08-17T16:40:38.535Z,29.1
2022-08-17T16:41:48.660Z,29.1
2022-08-17T16:42:58.782Z,29
2022-08-17T16:44:08.886Z,28.7
2022-08-17T16:45:19.008Z,28.7
2022-08-17T16:46:28.135Z,28.5
2022-08-17T16:47:38.258Z,28.5
2022-08-17T16:49:58.489Z,28.5
2022-08-17T16:51:08.611Z,28.6
2022-08-17T16:52:18.721Z,28.7
2022-08-17T16:53:28.847Z,28.8
2022-08-17T16:54:39.243Z,28.8
2022-08-17T16:56:59.198Z,28.8
2022-08-17T16:58:09.326Z,28.7
2022-08-17T16:59:19.436Z,28.8
2022-08-17T17:00:29.563Z,28.8
2022-08-17T17:01:38.139Z,28.8
2022-08-17T17:02:48.803Z,29
2022-08-17T17:03:58.924Z,29
2022-08-17T17:05:09.034Z,29.1
2022-08-17T17:07:29.276Z,29
2022-08-17T17:08:38.847Z,28.9
2022-08-17T17:09:49.503Z,28.7
2022-08-17T17:10:59.625Z,28.5
2022-08-17T17:12:09.740Z,28.5
2022-08-17T17:13:19.864Z,28.6
2022-08-17T17:14:29.982Z,28.6
2022-08-17T17:15:40.096Z,28.6
2022-08-17T17:17:59.339Z,28.3
2022-08-17T17:19:09.462Z,28.2
2022-08-17T17:20:19.037Z,28.3
2022-08-17T17:21:29.692Z,28.3
2022-08-17T17:22:39.811Z,28.3
2022-08-17T17:23:49.395Z,28.3
2022-08-17T17:24:59.509Z,28.3